Time;durP1;ratioP1;P1;durP2;ratioP2;P2;SDS_P1;SDS_P2;PMS_P1;PMS_P2;Temp;Humidity;BMP_temperature;BMP_pressure;BME280_temperature;BME280_humidity;BME280_pressure;Samples;Min_cycle;Max_cycle;Signal;HPM_P1;HPM_P2
2023/06/17 00:00:56;;;;;;;1999.90;999.90;;;;;;;28.00;28.68;101791.34;5069931;28;20081;-64
2023/06/17 00:03:22;;;;;;;1999.90;999.90;;;;;;;27.72;29.29;101783.31;5052635;28;20366;-64
2023/06/17 00:05:47;;;;;;;1999.90;999.90;;;;;;;27.54;29.49;101774.69;5068687;28;20021;-64
2023/06/17 00:08:12;;;;;;;1999.90;999.90;;;;;;;27.69;28.66;101786.22;5070333;28;20414;-66
2023/06/17 00:10:38;;;;;;;1999.90;999.90;;;;;;;27.24;28.56;101786.47;5052088;28;20548;-64
2023/06/17 00:13:03;;;;;;;1999.90;999.90;;;;;;;27.18;29.29;101783.34;5051192;28;20024;-65
2023/06/17 00:15:32;;;;;;;1999.90;999.90;;;;;;;27.43;28.99;101774.53;5052116;28;20028;-65
2023/06/17 00:18:00;;;;;;;1999.90;999.90;;;;;;;27.45;29.66;101775.31;5051558;28;20107;-65
2023/06/17 00:20:25;;;;;;;1999.90;999.90;;;;;;;27.61;29.25;101774.28;5069498;28;20032;-65
2023/06/17 00:22:52;;;;;;;1999.90;999.90;;;;;;;27.45;29.40;101771.75;5069459;28;20025;-65
2023/06/17 00:25:18;;;;;;;1999.90;999.90;;;;;;;27.45;29.69;101764.59;5070058;28;20040;-65
2023/06/17 00:27:44;;;;;;;1999.90;999.90;;;;;;;27.59;28.96;101763.66;5068239;28;20050;-65
2023/06/17 00:30:10;;;;;;;1999.90;999.90;;;;;;;27.25;29.88;101769.41;5069908;28;20028;-65
2023/06/17 00:32:36;;;;;;;1999.90;999.90;;;;;;;27.18;29.12;101761.88;5069497;28;20024;-65
2023/06/17 00:35:05;;;;;;;1999.90;999.90;;;;;;;27.05;29.82;101762.69;5069488;28;20467;-64
2023/06/17 00:37:31;;;;;;;1999.90;999.90;;;;;;;27.32;29.51;101761.81;5070176;28;20020;-65
2023/06/17 00:39:56;;;;;;;1999.90;999.90;;;;;;;27.34;29.64;101753.66;5051350;28;20023;-65
2023/06/17 00:42:22;;;;;;;1999.90;999.90;;;;;;;27.37;29.67;101758.88;5050639;28;20036;-65
2023/06/17 00:44:47;;;;;;;1999.90;999.90;;;;;;;27.42;29.40;101751.34;5051102;28;20027;-65
2023/06/17 00:47:14;;;;;;;1999.90;999.90;;;;;;;27.17;29.76;101761.00;5050860;28;20107;-65
2023/06/17 00:49:42;;;;;;;1999.90;999.90;;;;;;;27.19;30.38;101759.09;5069303;28;20040;-65
2023/06/17 00:52:09;;;;;;;1999.90;999.90;;;;;;;27.11;30.18;101761.41;5051424;28;20016;-64
2023/06/17 00:54:40;;;;;;;1999.90;999.90;;;;;;;27.12;30.38;101757.78;5068346;28;20028;-66
2023/06/17 00:57:11;;;;;;;1999.90;999.90;;;;;;;27.21;29.79;101762.50;5069946;28;20020;-65
2023/06/17 00:59:38;;;;;;;1999.90;999.90;;;;;;;27.03;30.83;101763.72;5051097;28;20016;-64
2023/06/17 01:02:06;;;;;;;1999.90;999.90;;;;;;;26.49;30.70;101770.69;5068761;28;20048;-64
2023/06/17 01:04:32;;;;;;;1999.90;999.90;;;;;;;26.86;30.15;101760.31;5051494;28;20047;-64
2023/06/17 01:07:23;;;;;;;1999.90;999.90;;;;;;;27.03;30.59;101758.38;5051044;28;20025;-64
2023/06/17 01:10:01;;;;;;;1999.90;999.90;;;;;;;27.09;30.37;101763.31;5052035;28;20021;-64
2023/06/17 01:12:28;;;;;;;1999.90;999.90;;;;;;;26.92;30.87;101757.22;5058042;28;20038;-64
2023/06/17 01:14:57;;;;;;;1999.90;999.90;;;;;;;26.87;30.65;101756.69;5075697;28;20860;-64
2023/06/17 01:17:23;;;;;;;1999.90;999.90;;;;;;;27.04;31.07;101765.47;5075127;28;20494;-64
2023/06/17 01:19:49;;;;;;;1999.90;999.90;;;;;;;27.02;30.91;101762.00;5057288;28;20028;-64
2023/06/17 01:22:16;;;;;;;1999.90;999.90;;;;;;;26.91;30.52;101755.53;5057668;28;20024;-64
2023/06/17 01:24:42;;;;;;;1999.90;999.90;;;;;;;26.95;30.63;101764.22;5057526;28;20028;-64
2023/06/17 01:27:08;;;;;;;1999.90;999.90;;;;;;;26.70;31.42;101751.53;5057963;28;20442;-64
2023/06/17 01:29:36;;;;;;;1999.90;999.90;;;;;;;26.80;31.05;101758.03;5075186;28;20059;-64
2023/06/17 01:32:02;;;;;;;1999.90;999.90;;;;;;;26.73;31.62;101762.06;5076029;28;20016;-64
2023/06/17 01:34:51;;;;;;;1999.90;999.90;;;;;;;26.52;31.50;101759.75;5075697;28;20020;-66
2023/06/17 01:37:28;;;;;;;1999.90;999.90;;;;;;;26.61;31.92;101763.66;5056974;28;20021;-64
2023/06/17 01:39:57;;;;;;;1999.90;999.90;;;;;;;26.42;31.87;101764.00;5075489;28;20101;-65
2023/06/17 01:42:31;;;;;;;1999.90;999.90;;;;;;;26.47;31.91;101767.22;5057715;28;20119;-64
2023/06/17 01:44:59;;;;;;;1999.90;999.90;;;;;;;26.32;32.64;101762.81;5056135;28;20039;-64
2023/06/17 01:47:24;;;;;;;1999.90;999.90;;;;;;;26.40;32.14;101760.53;5075818;28;20559;-65
2023/06/17 01:49:50;;;;;;;1999.90;999.90;;;;;;;26.27;32.50;101759.56;5057308;28;20345;-65
2023/06/17 01:52:15;;;;;;;1999.90;999.90;;;;;;;26.27;32.36;101764.94;5056944;28;20016;-65
2023/06/17 01:54:41;;;;;;;1999.90;999.90;;;;;;;26.58;32.26;101764.75;5057030;28;20105;-64
2023/06/17 01:57:06;;;;;;;1999.90;999.90;;;;;;;26.54;32.00;101773.06;5057809;28;20051;-65
2023/06/17 01:59:32;;;;;;;1999.90;999.90;;;;;;;26.43;31.96;101768.38;5056639;28;20059;-65
2023/06/17 02:01:57;;;;;;;1999.90;999.90;;;;;;;26.78;31.65;101759.97;5057185;28;20070;-64
2023/06/17 02:04:24;;;;;;;1999.90;999.90;;;;;;;26.31;32.37;101755.75;5057566;28;20040;-65
2023/06/17 02:06:49;;;;;;;1999.90;999.90;;;;;;;26.20;32.54;101754.59;5056403;28;20048;-64
2023/06/17 02:09:15;;;;;;;1999.90;999.90;;;;;;;26.07;32.87;101753.63;5075161;28;20028;-65
2023/06/17 02:11:40;;;;;;;1999.90;999.90;;;;;;;25.91;32.69;101754.53;5074584;28;20106;-64
2023/06/17 02:14:06;;;;;;;1999.90;999.90;;;;;;;26.00;33.04;101747.75;5075522;28;20028;-65
2023/06/17 02:16:31;;;;;;;1999.90;999.90;;;;;;;25.74;33.69;101744.81;5057610;28;20032;-65
2023/06/17 02:18:57;;;;;;;1999.90;999.90;;;;;;;26.05;33.40;101742.16;5056250;28;20067;-65
2023/06/17 02:21:22;;;;;;;1999.90;999.90;;;;;;;26.16;32.33;101736.13;5055431;28;20028;-66
2023/06/17 02:23:49;;;;;;;1999.90;999.90;;;;;;;26.07;33.06;101742.91;5071854;28;20028;-65
2023/06/17 02:26:17;;;;;;;1999.90;999.90;;;;;;;26.06;32.82;101735.81;5053521;28;20032;-65
2023/06/17 02:28:43;;;;;;;1999.90;999.90;;;;;;;25.87;33.01;101742.28;5071576;28;20035;-65
2023/06/17 02:31:09;;;;;;;1999.90;999.90;;;;;;;25.82;32.83;101728.31;5072022;28;20033;-65
2023/06/17 02:33:38;;;;;;;1999.90;999.90;;;;;;;25.78;33.53;101732.13;5053514;28;20400;-65
2023/06/17 02:36:03;;;;;;;1999.90;999.90;;;;;;;25.98;33.48;101732.72;5054266;28;20484;-65
2023/06/17 02:38:29;;;;;;;1999.90;999.90;;;;;;;25.93;33.42;101729.50;5053848;28;20127;-65
2023/06/17 02:40:54;;;;;;;1999.90;999.90;;;;;;;25.75;33.50;101726.97;5052899;28;20055;-65
2023/06/17 02:43:20;;;;;;;1999.90;999.90;;;;;;;25.84;33.33;101726.41;5053586;28;20051;-65
2023/06/17 02:45:45;;;;;;;1999.90;999.90;;;;;;;25.69;34.16;101716.59;5071504;28;20465;-65
2023/06/17 02:48:11;;;;;;;1999.90;999.90;;;;;;;25.75;33.99;101718.94;5052927;28;20029;-65
2023/06/17 02:50:36;;;;;;;1999.90;999.90;;;;;;;25.73;33.31;101723.50;5053462;28;20035;-65
2023/06/17 02:53:04;;;;;;;1999.90;999.90;;;;;;;25.85;33.34;101717.41;5053974;28;20194;-65
2023/06/17 02:55:29;;;;;;;1999.90;999.90;;;;;;;25.62;34.03;101720.63;5052656;28;20070;-65
2023/06/17 02:57:55;;;;;;;1999.90;999.90;;;;;;;25.65;33.73;101720.44;5052918;28;20056;-65
2023/06/17 03:00:21;;;;;;;1999.90;999.90;;;;;;;25.69;33.94;101719.28;5071418;28;20028;-65
2023/06/17 03:02:48;;;;;;;1999.90;999.90;;;;;;;25.94;32.59;101718.69;5052646;28;20056;-65
2023/06/17 03:05:14;;;;;;;1999.90;999.90;;;;;;;25.38;34.59;101718.44;5053450;28;20119;-65
2023/06/17 03:07:40;;;;;;;1999.90;999.90;;;;;;;25.38;33.97;101723.81;5070854;28;20082;-65
2023/06/17 03:10:06;;;;;;;1999.90;999.90;;;;;;;25.54;33.90;101729.97;5052525;28;20434;-66
2023/06/17 03:12:31;;;;;;;1999.90;999.90;;;;;;;25.48;33.74;101716.94;5053303;28;20073;-65
2023/06/17 03:15:00;;;;;;;1999.90;999.90;;;;;;;25.37;34.02;101727.41;5070019;28;20060;-65
2023/06/17 03:17:27;;;;;;;1999.90;999.90;;;;;;;25.38;34.20;101723.81;5071178;28;20020;-65
2023/06/17 03:19:53;;;;;;;1999.90;999.90;;;;;;;25.20;33.69;101721.22;5052855;28;20411;-66
2023/06/17 03:22:18;;;;;;;1999.90;999.90;;;;;;;25.52;34.12;101725.66;5052232;28;20031;-65
2023/06/17 03:24:43;;;;;;;1999.90;999.90;;;;;;;25.24;34.29;101722.75;5052729;28;20540;-65
2023/06/17 03:27:09;;;;;;;1999.90;999.90;;;;;;;25.43;34.36;101721.72;5052732;28;20554;-65
2023/06/17 03:29:35;;;;;;;1999.90;999.90;;;;;;;25.21;34.39;101714.03;5070425;28;20035;-65
2023/06/17 03:32:01;;;;;;;1999.90;999.90;;;;;;;25.20;34.32;101713.19;5053281;28;20025;-65
2023/06/17 03:34:26;;;;;;;1999.90;999.90;;;;;;;25.45;34.67;101724.31;5070635;28;20034;-65
2023/06/17 03:36:51;;;;;;;1999.90;999.90;;;;;;;25.50;34.23;101716.84;5051862;28;20043;-65
2023/06/17 03:39:17;;;;;;;1999.90;999.90;;;;;;;25.39;34.84;101721.03;5052523;28;20468;-65
2023/06/17 03:41:42;;;;;;;1999.90;999.90;;;;;;;25.43;33.78;101719.06;5052312;28;20492;-65
2023/06/17 03:44:07;;;;;;;1999.90;999.90;;;;;;;25.59;33.83;101718.13;5052097;28;20523;-65
2023/06/17 03:46:33;;;;;;;1999.90;999.90;;;;;;;25.15;34.95;101712.56;5052793;28;20458;-65
2023/06/17 03:48:58;;;;;;;1999.90;999.90;;;;;;;25.21;35.13;101712.25;5070111;28;20032;-65
2023/06/17 03:51:24;;;;;;;1999.90;999.90;;;;;;;25.22;34.81;101708.63;5051921;28;20039;-65
2023/06/17 03:53:49;;;;;;;1999.90;999.90;;;;;;;25.16;35.13;101714.31;5052232;28;20492;-66
2023/06/17 03:56:15;;;;;;;1999.90;999.90;;;;;;;25.28;34.87;101718.09;5052408;28;20059;-65
2023/06/17 03:58:40;;;;;;;1999.90;999.90;;;;;;;25.06;35.73;101708.63;5051109;28;20094;-66
2023/06/17 04:01:12;;;;;;;1999.90;999.90;;;;;;;25.63;34.39;101707.13;5052466;28;20161;-65
2023/06/17 04:03:38;;;;;;;1999.90;999.90;;;;;;;25.30;35.00;101715.31;5051788;28;20033;-65
2023/06/17 04:06:03;;;;;;;1999.90;999.90;;;;;;;25.28;35.16;101709.19;5051689;28;20388;-65
2023/06/17 04:08:32;;;;;;;1999.90;999.90;;;;;;;25.30;35.25;101712.66;5070246;28;20396;-66
2023/06/17 04:10:58;;;;;;;1999.90;999.90;;;;;;;25.36;34.62;101709.63;5051751;28;20593;-66
2023/06/17 04:13:24;;;;;;;1999.90;999.90;;;;;;;25.36;35.42;101706.97;5051370;28;20028;-65
2023/06/17 04:15:49;;;;;;;1999.90;999.90;;;;;;;25.44;34.87;101722.56;5051767;28;20048;-65
2023/06/17 04:18:14;;;;;;;1999.90;999.90;;;;;;;25.41;35.01;101723.63;5051324;28;20165;-65
2023/06/17 04:20:40;;;;;;;1999.90;999.90;;;;;;;25.55;35.23;101726.34;5069705;28;20028;-65
2023/06/17 04:23:05;;;;;;;1999.90;999.90;;;;;;;25.47;35.37;101727.75;5051735;28;20031;-65
2023/06/17 04:25:32;;;;;;;1999.90;999.90;;;;;;;25.39;35.51;101720.19;5051292;28;20431;-65
2023/06/17 04:27:58;;;;;;;1999.90;999.90;;;;;;;25.53;35.91;101725.56;5051427;28;20013;-65
2023/06/17 04:30:25;;;;;;;1999.90;999.90;;;;;;;25.51;35.27;101724.81;5052039;28;20032;-65
2023/06/17 04:32:50;;;;;;;1999.90;999.90;;;;;;;25.66;35.25;101727.50;5068472;28;20069;-66
2023/06/17 04:35:17;;;;;;;1999.90;999.90;;;;;;;25.72;35.36;101721.81;5069858;28;20484;-65
2023/06/17 04:37:43;;;;;;;1999.90;999.90;;;;;;;25.78;35.29;101732.13;5051783;28;20034;-65
2023/06/17 04:40:11;;;;;;;1999.90;999.90;;;;;;;25.79;35.73;101728.50;5068595;28;20024;-65
2023/06/17 04:42:40;;;;;;;1999.90;999.90;;;;;;;26.03;35.38;101731.50;5051206;28;20488;-65
2023/06/17 04:45:08;;;;;;;1999.90;999.90;;;;;;;26.07;34.91;101725.00;5051342;28;20139;-65
2023/06/17 04:47:33;;;;;;;1999.90;999.90;;;;;;;26.69;34.09;101717.63;5068852;28;20028;-65
2023/06/17 04:49:59;;;;;;;1999.90;999.90;;;;;;;26.95;33.61;101707.03;5051229;28;20028;-65
2023/06/17 04:52:24;;;;;;;1999.90;999.90;;;;;;;28.21;31.94;101714.59;5069288;28;20021;-65
2023/06/17 04:54:50;;;;;;;1999.90;999.90;;;;;;;29.18;30.37;101709.38;5068151;28;20040;-65
2023/06/17 04:57:16;;;;;;;1999.90;999.90;;;;;;;29.97;29.00;101716.88;5069833;28;20487;-65
2023/06/17 04:59:42;;;;;;;1999.90;999.90;;;;;;;31.07;27.83;101706.22;5050935;28;20032;-65
2023/06/17 05:02:07;;;;;;;1999.90;999.90;;;;;;;31.44;27.60;101708.50;5050442;28;20051;-65
2023/06/17 05:04:33;;;;;;;1999.90;999.90;;;;;;;32.07;26.65;101714.88;5051479;28;20038;-65
2023/06/17 05:06:58;;;;;;;1999.90;999.90;;;;;;;32.62;25.43;101706.41;5050950;28;20040;-65
2023/06/17 05:09:23;;;;;;;1999.90;999.90;;;;;;;32.60;25.77;101711.97;5050640;28;20443;-64
2023/06/17 05:11:49;;;;;;;1999.90;999.90;;;;;;;32.92;26.21;101710.91;5068984;28;20028;-65
2023/06/17 05:14:15;;;;;;;1999.90;999.90;;;;;;;33.34;25.18;101708.94;5069279;28;20024;-65
2023/06/17 05:16:40;;;;;;;1999.90;999.90;;;;;;;33.94;24.48;101720.38;5050098;28;20028;-64
2023/06/17 05:19:06;;;;;;;1999.90;999.90;;;;;;;33.11;25.13;101717.31;5051269;28;20042;-64
2023/06/17 05:21:31;;;;;;;1999.90;999.90;;;;;;;32.92;25.43;101710.03;5050497;28;20036;-64
2023/06/17 05:23:56;;;;;;;1999.90;999.90;;;;;;;32.45;26.36;101718.75;5068725;28;20024;-64
2023/06/17 05:26:22;;;;;;;1999.90;999.90;;;;;;;30.98;28.88;101716.91;5051214;28;20091;-65
2023/06/17 05:28:47;;;;;;;1999.90;999.90;;;;;;;30.88;29.29;101717.66;5050071;28;20032;-64
2023/06/17 05:31:13;;;;;;;1999.90;999.90;;;;;;;30.06;30.75;101720.66;5069349;28;20366;-64
2023/06/17 05:33:38;;;;;;;1999.90;999.90;;;;;;;29.64;32.05;101717.66;5068626;28;20043;-64
2023/06/17 05:36:04;;;;;;;1999.90;999.90;;;;;;;28.71;33.73;101711.09;5050832;28;20028;-64
2023/06/17 05:38:30;;;;;;;1999.90;999.90;;;;;;;27.83;35.59;101717.28;5051147;28;20396;-64
2023/06/17 05:40:56;;;;;;;1999.90;999.90;;;;;;;27.30;36.92;101717.25;5068463;28;20115;-64
2023/06/17 05:43:21;;;;;;;1999.90;999.90;;;;;;;27.92;36.24;101712.13;5050532;28;20111;-65
2023/06/17 05:45:47;;;;;;;1999.90;999.90;;;;;;;27.54;36.91;101715.63;5050271;28;20024;-65
2023/06/17 05:48:12;;;;;;;1999.90;999.90;;;;;;;27.36;37.57;101708.81;5051258;28;20530;-65
2023/06/17 05:50:38;;;;;;;1999.90;999.90;;;;;;;27.71;36.98;101716.28;5049738;28;20024;-65
2023/06/17 05:53:04;;;;;;;1999.90;999.90;;;;;;;27.95;36.48;101707.50;5050811;28;20032;-65
2023/06/17 05:55:30;;;;;;;1999.90;999.90;;;;;;;27.91;35.89;101712.22;5050636;28;20058;-65
2023/06/17 05:57:55;;;;;;;1999.90;999.90;;;;;;;27.19;36.54;101710.78;5052178;28;20060;-65
2023/06/17 06:00:22;;;;;;;1999.90;999.90;;;;;;;26.66;37.71;101715.13;5054710;28;20123;-65
2023/06/17 06:02:48;;;;;;;1999.90;999.90;;;;;;;27.88;35.77;101713.28;5071934;28;20059;-65
2023/06/17 06:05:13;;;;;;;1999.90;999.90;;;;;;;29.14;33.35;101715.97;5054274;28;20035;-65
2023/06/17 06:07:41;;;;;;;1999.90;999.90;;;;;;;28.75;34.27;101715.25;5054049;28;20404;-65
2023/06/17 06:10:07;;;;;;;1999.90;999.90;;;;;;;29.21;33.42;101713.66;5054532;28;20494;-65
2023/06/17 06:12:32;;;;;;;1999.90;999.90;;;;;;;29.04;31.78;101723.84;5053548;28;20013;-65
2023/06/17 06:14:58;;;;;;;1999.90;999.90;;;;;;;31.87;28.62;101711.22;5053901;28;20021;-65
2023/06/17 06:17:24;;;;;;;1999.90;999.90;;;;;;;33.38;26.30;101713.06;5054591;28;20388;-65
2023/06/17 06:19:50;;;;;;;1999.90;999.90;;;;;;;34.12;24.17;101715.03;5052830;28;20480;-65
2023/06/17 06:22:16;;;;;;;1999.90;999.90;;;;;;;34.84;23.66;101708.97;5054140;28;20033;-65
2023/06/17 06:24:41;;;;;;;1999.90;999.90;;;;;;;36.25;22.39;101719.03;5053511;28;20225;-65
2023/06/17 06:27:06;;;;;;;1999.90;999.90;;;;;;;35.90;21.35;101713.59;5053843;28;20059;-65
2023/06/17 06:29:32;;;;;;;1999.90;999.90;;;;;;;35.85;21.58;101715.94;5072191;28;20471;-65
2023/06/17 06:31:57;;;;;;;1999.90;999.90;;;;;;;36.19;20.83;101715.09;5053004;28;20028;-65
2023/06/17 06:34:23;;;;;;;1999.90;999.90;;;;;;;36.78;21.41;101714.25;5053963;28;20016;-65
2023/06/17 06:36:48;;;;;;;1999.90;999.90;;;;;;;37.62;20.52;101720.47;5053539;28;20013;-65
2023/06/17 06:39:13;;;;;;;1999.90;999.90;;;;;;;38.49;20.88;101713.38;5071731;28;20097;-66
2023/06/17 06:41:39;;;;;;;1999.90;999.90;;;;;;;38.82;19.64;101713.22;5071501;28;20535;-65
2023/06/17 06:44:04;;;;;;;1999.90;999.90;;;;;;;39.32;17.95;101706.34;5054112;28;20024;-65
2023/06/17 06:46:31;;;;;;;1999.90;999.90;;;;;;;39.48;18.27;101709.94;5053343;28;20055;-65
2023/06/17 06:48:56;;;;;;;1999.90;999.90;;;;;;;39.77;16.97;101711.88;5053201;28;20111;-63
2023/06/17 06:51:22;;;;;;;1095.57;982.17;;;;;;;39.30;17.34;101702.09;5053563;28;20575;-66
2023/06/17 06:53:48;;;;;;;1072.70;965.03;;;;;;;39.27;17.52;101706.03;5070451;28;20036;-63
2023/06/17 06:56:14;;;;;;;1054.25;950.55;;;;;;;39.09;17.58;101710.94;5053474;28;20044;-65
2023/06/17 06:58:39;;;;;;;1079.50;969.55;;;;;;;40.22;17.49;101703.66;5052855;28;20105;-66
2023/06/17 07:01:06;;;;;;;1104.65;990.10;;;;;;;40.93;17.44;101711.25;5053130;28;20055;-65
2023/06/17 07:03:32;;;;;;;1019.45;922.20;;;;;;;39.24;17.21;101705.53;5071650;28;20427;-65
2023/06/17 07:05:58;;;;;;;1003.92;909.65;;;;;;;39.72;15.80;101714.31;5053217;28;20037;-63
2023/06/17 07:08:24;;;;;;;996.35;903.15;;;;;;;39.56;16.29;101709.84;5069966;28;20029;-63
2023/06/17 07:10:50;;;;;;;1013.78;919.08;;;;;;;40.80;15.58;101700.97;5053178;28;20052;-65
2023/06/17 07:13:17;;;;;;;986.78;896.78;;;;;;;40.59;15.78;101703.69;5053230;28;20498;-63
2023/06/17 07:15:43;;;;;;;961.05;875.90;;;;;;;40.41;14.96;101701.34;5069958;28;20044;-64
2023/06/17 07:18:09;;;;;;;988.28;899.55;;;;;;;41.38;15.10;101700.03;5071010;28;20099;-63
2023/06/17 07:20:37;;;;;;;963.08;879.25;;;;;;;41.48;15.10;101697.81;5052665;28;20710;-63
2023/06/17 07:23:03;;;;;;;965.45;880.60;;;;;;;41.57;13.33;101717.69;5052399;28;20025;-64
2023/06/17 07:25:28;;;;;;;956.60;874.00;;;;;;;41.53;13.99;101710.91;5053058;28;20384;-63
2023/06/17 07:27:56;;;;;;;975.55;889.78;;;;;;;42.15;13.99;101708.31;5070438;28;20253;-63
2023/06/17 07:30:22;;;;;;;969.38;885.75;;;;;;;42.32;13.28;101717.03;5052142;28;20028;-63
2023/06/17 07:32:47;;;;;;;978.55;893.92;;;;;;;42.87;12.00;101717.03;5052051;28;20395;-63
2023/06/17 07:35:13;;;;;;;998.30;909.53;;;;;;;43.00;13.39;101711.50;5051928;28;20023;-65
2023/06/17 07:37:38;;;;;;;1028.47;933.72;;;;;;;42.97;14.37;101717.44;5052290;28;20028;-63
2023/06/17 07:40:06;;;;;;;1038.88;943.40;;;;;;;43.88;13.25;101707.66;5052711;28;20110;-63
2023/06/17 07:42:31;;;;;;;958.45;877.85;;;;;;;41.45;13.11;101709.16;5051818;28;20166;-63
2023/06/17 07:44:56;;;;;;;986.72;901.08;;;;;;;42.74;12.10;101712.31;5070326;28;20107;-63
2023/06/17 07:47:23;;;;;;;964.20;883.63;;;;;;;43.44;11.96;101711.09;5052767;28;20028;-63
2023/06/17 07:49:48;;;;;;;983.28;899.20;;;;;;;44.46;10.82;101713.34;5051505;28;20028;-63
2023/06/17 07:52:14;;;;;;;954.97;875.30;;;;;;;45.09;10.50;101712.53;5070357;28;20051;-64
2023/06/17 07:54:41;;;;;;;996.30;909.08;;;;;;;45.62;10.98;101711.19;5070069;28;20036;-64
2023/06/17 07:57:06;;;;;;;977.85;895.25;;;;;;;44.35;10.73;101717.66;5051755;28;20059;-63
2023/06/17 07:59:32;;;;;;;979.47;894.78;;;;;;;44.70;10.82;101712.59;5052515;28;20110;-64
2023/06/17 08:01:57;;;;;;;974.38;891.10;;;;;;;43.80;11.56;101718.03;5069832;28;20020;-66
2023/06/17 08:04:23;;;;;;;1004.63;915.78;;;;;;;44.22;11.61;101708.34;5069804;28;20020;-63
2023/06/17 08:06:48;;;;;;;1012.63;922.08;;;;;;;44.72;12.01;101707.72;5069906;28;20029;-64
2023/06/17 08:09:13;;;;;;;962.13;881.05;;;;;;;44.42;11.06;101701.91;5052301;28;20029;-64
2023/06/17 08:11:39;;;;;;;917.83;843.58;;;;;;;44.09;11.27;101707.56;5050802;28;20051;-65
2023/06/17 08:14:04;;;;;;;942.97;865.75;;;;;;;44.17;10.69;101710.91;5052177;28;20047;-65
2023/06/17 08:16:29;;;;;;;940.13;862.55;;;;;;;44.58;12.02;101711.56;5052207;28;20039;-64
2023/06/17 08:18:55;;;;;;;953.13;874.47;;;;;;;44.92;11.86;101706.69;5050427;28;20021;-65
2023/06/17 08:21:20;;;;;;;946.92;868.85;;;;;;;44.75;11.13;101705.56;5052604;28;20029;-74
2023/06/17 08:23:46;;;;;;;917.42;843.95;;;;;;;45.37;10.59;101709.28;5070302;28;20031;-74
2023/06/17 08:26:11;;;;;;;897.60;827.25;;;;;;;44.75;12.02;101708.31;5051827;28;20024;-74
2023/06/17 08:28:38;;;;;;;887.28;817.63;;;;;;;44.66;11.25;101705.78;5052066;28;20052;-74
2023/06/17 08:31:03;;;;;;;945.50;866.70;;;;;;;45.02;11.28;101712.53;5052454;28;20033;-74
2023/06/17 08:33:29;;;;;;;902.10;830.78;;;;;;;43.55;11.55;101708.56;5051385;28;20135;-74
2023/06/17 08:35:55;;;;;;;893.95;823.47;;;;;;;42.31;11.77;101713.47;5052136;28;20036;-74
2023/06/17 08:38:20;;;;;;;898.65;827.15;;;;;;;43.65;12.36;101708.13;5052156;28;20211;-74
2023/06/17 08:40:45;;;;;;;958.58;878.22;;;;;;;44.32;12.09;101707.91;5051825;28;20115;-74
2023/06/17 08:43:14;;;;;;;915.33;842.05;;;;;;;44.61;10.63;101704.78;5052698;28;20081;-74
2023/06/17 08:45:41;;;;;;;883.20;814.90;;;;;;;43.34;12.03;101706.88;5068924;28;20473;-74
2023/06/17 08:48:07;;;;;;;902.42;830.40;;;;;;;43.79;11.56;101697.06;5070004;28;20150;-74
2023/06/17 08:50:33;;;;;;;927.65;852.10;;;;;;;44.77;12.61;101695.16;5052438;28;20565;-74
2023/06/17 08:52:58;;;;;;;860.83;795.13;;;;;;;44.11;10.70;101705.47;5050954;28;20023;-74
2023/06/17 08:55:24;;;;;;;918.33;844.53;;;;;;;44.73;11.20;101700.28;5052268;28;20048;-74
2023/06/17 08:57:52;;;;;;;932.97;857.10;;;;;;;43.38;12.59;101701.81;5051686;28;20017;-74
2023/06/17 09:00:18;;;;;;;941.40;863.85;;;;;;;45.18;11.17;101704.81;5051081;28;20480;-75
2023/06/17 09:02:45;;;;;;;921.33;846.05;;;;;;;46.30;12.04;101698.28;5069616;28;20039;-74
2023/06/17 09:05:10;;;;;;;900.50;829.63;;;;;;;46.78;10.44;101706.72;5069960;28;20020;-74
2023/06/17 09:07:37;;;;;;;867.75;800.67;;;;;;;46.27;11.43;101701.50;5068916;28;20028;-74
2023/06/17 09:10:08;;;;;;;858.13;793.20;;;;;;;46.55;10.33;101702.78;5051948;28;20384;-74
2023/06/17 09:12:39;;;;;;;842.25;779.85;;;;;;;45.14;10.19;101695.31;5069903;28;20020;-73
2023/06/17 09:15:06;;;;;;;899.97;827.60;;;;;;;45.40;10.72;101692.28;5051205;28;20021;-74
2023/06/17 09:17:32;;;;;;;889.92;819.85;;;;;;;44.77;10.85;101692.41;5069800;28;20100;-74
2023/06/17 09:20:08;;;;;;;905.78;833.55;;;;;;;46.02;10.58;101683.13;5051676;28;20463;-74
2023/06/17 09:22:35;;;;;;;893.63;822.95;;;;;;;46.30;10.16;101695.50;5051362;28;20411;-74
2023/06/17 09:25:01;;;;;;;892.60;820.97;;;;;;;44.61;11.79;101689.06;5051972;28;20430;-74
2023/06/17 09:27:26;;;;;;;887.58;817.33;;;;;;;43.01;11.62;101695.88;5051729;28;20025;-75
2023/06/17 09:30:13;;;;;;;886.28;816.33;;;;;;;42.70;11.51;101695.44;5068882;28;20028;-74
2023/06/17 09:32:40;;;;;;;922.30;848.38;;;;;;;45.08;10.82;101688.75;5073292;28;20031;-74
2023/06/17 09:35:11;;;;;;;916.65;842.95;;;;;;;45.58;10.68;101693.41;5055211;28;20473;-74
2023/06/17 09:37:37;;;;;;;893.88;823.08;;;;;;;45.43;11.17;101684.63;5055850;28;20139;-74
2023/06/17 09:40:05;;;;;;;926.47;852.42;;;;;;;46.11;9.47;101688.31;5055272;28;20527;-75
2023/06/17 09:42:31;;;;;;;889.63;819.60;;;;;;;46.67;10.47;101683.50;5073058;28;20035;-73
2023/06/17 09:45:00;;;;;;;902.83;831.13;;;;;;;46.28;11.33;101681.09;5073046;28;20512;-74
2023/06/17 09:47:38;;;;;;;887.25;817.85;;;;;;;46.03;9.09;101678.44;5073319;28;20031;-74
2023/06/17 09:50:08;;;;;;;892.17;822.08;;;;;;;44.10;10.83;101681.75;5072676;28;20055;-74
2023/06/17 09:52:36;;;;;;;900.88;830.10;;;;;;;42.10;11.95;101675.13;5073192;28;20084;-74
2023/06/17 09:55:05;;;;;;;958.63;878.95;;;;;;;44.57;10.98;101676.81;5073277;28;20079;-74
2023/06/17 09:57:35;;;;;;;915.38;843.42;;;;;;;44.54;10.23;101672.59;5054896;28;20028;-74
2023/06/17 10:00:00;;;;;;;880.72;813.28;;;;;;;44.53;9.98;101667.31;5055258;28;20476;-74
2023/06/17 10:02:27;;;;;;;910.10;838.53;;;;;;;44.52;10.99;101671.16;5055431;28;20073;-75
2023/06/17 10:04:53;;;;;;;888.05;819.17;;;;;;;44.66;10.43;101672.72;5054118;28;20028;-74
2023/06/17 10:07:25;;;;;;;862.83;797.33;;;;;;;46.67;8.86;101678.81;5055215;28;20037;-74
2023/06/17 10:09:51;;;;;;;;;;;;;;;46.20;9.38;101678.63;5054339;28;20025;-74
2023/06/17 10:12:17;;;;;;;873.78;808.05;;;;;;;45.16;10.84;101684.88;5055217;28;19973;-74
2023/06/17 10:14:44;;;;;;;930.58;856.13;;;;;;;45.03;10.04;101678.38;5054473;28;20487;-74
2023/06/17 10:17:11;;;;;;;894.88;825.15;;;;;;;45.55;10.45;101669.03;5054316;28;20038;-74
2023/06/17 10:19:39;;;;;;;869.97;802.58;;;;;;;44.47;11.46;101663.53;5072548;28;20070;-74
2023/06/17 10:22:09;;;;;;;905.03;833.70;;;;;;;46.65;10.63;101674.59;5072841;28;20052;-74
2023/06/17 10:24:35;;;;;;;882.55;814.40;;;;;;;46.14;9.88;101668.50;5071868;28;20036;-74
2023/06/17 10:27:06;;;;;;;857.08;792.10;;;;;;;45.62;10.26;101674.44;5054708;28;20496;-74
2023/06/17 10:29:32;;;;;;;847.42;784.05;;;;;;;44.18;9.85;101664.97;5054626;28;20488;-74
2023/06/17 10:32:19;;;;;;;874.03;806.38;;;;;;;46.71;9.40;101663.44;5053789;28;20020;-74
2023/06/17 10:35:06;;;;;;;861.15;795.75;;;;;;;48.05;9.27;101660.94;5054308;28;20032;-74
2023/06/17 10:37:38;;;;;;;846.00;782.35;;;;;;;46.01;8.97;101662.09;5072196;28;20503;-75
2023/06/17 10:40:35;;;;;;;863.80;797.72;;;;;;;45.36;9.95;101663.47;5072056;28;20116;-74
2023/06/17 10:43:03;;;;;;;853.22;788.75;;;;;;;46.02;9.52;101663.78;5070667;28;20518;-74
2023/06/17 10:45:44;;;;;;;851.13;786.00;;;;;;;45.30;10.81;101660.75;5054007;28;20074;-74
2023/06/17 10:48:19;;;;;;;851.58;787.17;;;;;;;46.00;9.56;101651.28;5054502;28;20024;-75